Time;durP1;ratioP1;P1;durP2;ratioP2;P2;SDS_P1;SDS_P2;PMS_P1;PMS_P2;Temp;Humidity;BMP_temperature;BMP_pressure;BME280_temperature;BME280_humidity;BME280_pressure;Samples;Min_cycle;Max_cycle;Signal;HPM_P1;HPM_P2
2021/03/05 00:01:32;;;;;;;1.70;0.70;;;;;;;;;;5073829;28;20174;-64
2021/03/05 00:03:58;;;;;;;1.50;1.00;;;;;;;;;;5073927;28;20417;-64
2021/03/05 00:06:25;;;;;;;0.83;0.83;;;;;;;;;;5073667;28;20478;-64
2021/03/05 00:08:51;;;;;;;2.47;2.30;;;;;;;;;;5073091;28;20424;-64
2021/03/05 00:11:17;;;;;;;1.52;1.42;;;;;;;;;;5057120;28;20178;-64
2021/03/05 00:13:43;;;;;;;2.23;1.57;;;;;;;;;;5074230;28;20552;-64
2021/03/05 00:16:09;;;;;;;4.37;3.97;;;;;;;;;;5073938;28;20519;-63
2021/03/05 00:18:35;;;;;;;2.00;1.02;;;;;;;;;;5074025;28;20922;-63
2021/03/05 00:21:01;;;;;;;1.95;1.83;;;;;;;;;;5073302;28;20327;-64
2021/03/05 00:23:27;;;;;;;1.52;1.48;;;;;;;;;;5074223;28;20539;-63
2021/03/05 00:25:53;;;;;;;3.25;2.60;;;;;;;;;;5074027;28;20197;-63
2021/03/05 00:28:20;;;;;;;0.90;0.90;;;;;;;;;;5074136;28;20179;-63
2021/03/05 00:30:46;;;;;;;1.92;1.58;;;;;;;;;;5073457;28;20409;-63
2021/03/05 00:33:12;;;;;;;1.65;1.55;;;;;;;;;;5074026;28;20288;-63
2021/03/05 00:35:38;;;;;;;2.33;2.10;;;;;;;;;;5073838;28;20221;-64
2021/03/05 00:38:05;;;;;;;2.05;1.90;;;;;;;;;;5073045;28;20185;-63
2021/03/05 00:40:31;;;;;;;3.72;2.00;;;;;;;;;;5073299;28;20235;-64
2021/03/05 00:42:57;;;;;;;1.23;1.13;;;;;;;;;;5074001;28;20188;-63
2021/03/05 00:45:24;;;;;;;6.90;3.57;;;;;;;;;;5074108;28;20203;-63
2021/03/05 00:47:50;;;;;;;1.67;1.60;;;;;;;;;;5073646;28;20411;-64
2021/03/05 00:50:17;;;;;;;3.58;2.67;;;;;;;;;;5072791;28;20175;-63
2021/03/05 00:52:43;;;;;;;3.10;2.70;;;;;;;;;;5073279;28;20189;-64
2021/03/05 00:55:10;;;;;;;2.47;2.03;;;;;;;;;;5073001;28;20250;-64
2021/03/05 00:57:36;;;;;;;2.30;2.20;;;;;;;;;;5072964;28;20628;-65
2021/03/05 01:00:07;;;;;;;5.32;2.85;;;;;;;;;;5072483;28;20249;-64
2021/03/05 01:02:33;;;;;;;3.85;2.92;;;;;;;;;;5072812;28;20175;-64
2021/03/05 01:04:59;;;;;;;2.40;2.22;;;;;;;;;;5072525;28;20750;-61
2021/03/05 01:07:25;;;;;;;2.10;1.98;;;;;;;;;;5072373;28;20183;-64
2021/03/05 01:09:52;;;;;;;3.30;3.10;;;;;;;;;;5072047;28;20187;-64
2021/03/05 01:12:18;;;;;;;1.70;1.60;;;;;;;;;;5072428;28;20413;-64
2021/03/05 01:14:44;;;;;;;5.63;3.05;;;;;;;;;;5072330;28;20219;-64
2021/03/05 01:17:11;;;;;;;6.35;2.80;;;;;;;;;;5054386;28;20172;-64
2021/03/05 01:19:37;;;;;;;2.13;1.55;;;;;;;;;;5068831;28;20235;-63
2021/03/05 01:22:04;;;;;;;3.15;2.88;;;;;;;;;;5072229;28;20220;-64
2021/03/05 01:24:30;;;;;;;1.20;1.20;;;;;;;;;;5072160;28;20175;-64
2021/03/05 01:26:56;;;;;;;4.80;4.50;;;;;;;;;;5071985;28;20172;-64
2021/03/05 01:29:22;;;;;;;1.27;1.27;;;;;;;;;;5071404;28;20834;-64
2021/03/05 01:31:48;;;;;;;2.97;2.88;;;;;;;;;;5071951;28;20172;-66
2021/03/05 01:34:14;;;;;;;1.95;1.85;;;;;;;;;;5053775;28;20275;-66
2021/03/05 01:36:40;;;;;;;3.50;2.85;;;;;;;;;;5071841;28;20191;-65
2021/03/05 01:39:06;;;;;;;14.43;4.50;;;;;;;;;;5071125;28;20231;-66
2021/03/05 01:41:33;;;;;;;2.97;2.75;;;;;;;;;;5071909;28;20167;-66
2021/03/05 01:44:00;;;;;;;4.57;2.78;;;;;;;;;;5071796;28;20203;-65
2021/03/05 01:46:26;;;;;;;2.45;2.25;;;;;;;;;;5071783;28;20191;-65
2021/03/05 01:48:52;;;;;;;5.03;2.70;;;;;;;;;;5070860;28;20245;-63
2021/03/05 01:51:20;;;;;;;3.92;3.17;;;;;;;;;;5071155;28;20175;-64
2021/03/05 01:53:47;;;;;;;3.28;2.97;;;;;;;;;;5071529;28;20199;-64
2021/03/05 01:56:32;;;;;;;2.63;2.42;;;;;;;;;;5071373;28;20184;-66
2021/03/05 01:58:58;;;;;;;2.83;2.25;;;;;;;;;;5068194;28;20552;-65
2021/03/05 02:01:25;;;;;;;2.13;2.03;;;;;;;;;;5071846;28;20209;-65
2021/03/05 02:03:51;;;;;;;1.70;1.67;;;;;;;;;;5071720;28;20630;-65
2021/03/05 02:06:17;;;;;;;1.40;1.20;;;;;;;;;;5053678;28;20188;-65
2021/03/05 02:08:43;;;;;;;6.82;3.35;;;;;;;;;;5071220;28;20216;-65
2021/03/05 02:11:09;;;;;;;4.00;2.30;;;;;;;;;;5071580;28;20242;-65
2021/03/05 02:13:36;;;;;;;1.45;1.35;;;;;;;;;;5071750;28;20172;-65
2021/03/05 02:16:05;;;;;;;2.20;2.00;;;;;;;;;;5053590;28;20194;-66
2021/03/05 02:18:30;;;;;;;2.85;2.67;;;;;;;;;;5071465;28;20224;-65
2021/03/05 02:21:12;;;;;;;12.23;2.37;;;;;;;;;;5070888;28;20206;-65
2021/03/05 02:23:46;;;;;;;2.28;2.17;;;;;;;;;;5071575;28;20409;-65
2021/03/05 02:26:15;;;;;;;3.75;3.55;;;;;;;;;;5071499;28;20211;-65
2021/03/05 02:29:00;;;;;;;3.95;2.00;;;;;;;;;;5071254;28;20217;-65
2021/03/05 02:31:29;;;;;;;1.27;1.23;;;;;;;;;;5071580;28;20642;-66
2021/03/05 02:34:13;;;;;;;2.45;2.35;;;;;;;;;;5071527;28;20178;-65
2021/03/05 02:36:49;;;;;;;2.55;2.35;;;;;;;;;;5071326;28;20189;-65
2021/03/05 02:39:16;;;;;;;3.15;3.00;;;;;;;;;;5069864;28;20199;-65
2021/03/05 02:41:43;;;;;;;3.22;3.05;;;;;;;;;;5052822;28;20180;-65
2021/03/05 02:44:18;;;;;;;1.05;1.05;;;;;;;;;;5071653;28;20167;-65
2021/03/05 02:46:44;;;;;;;10.52;1.83;;;;;;;;;;5053475;28;20204;-65
2021/03/05 02:49:13;;;;;;;1.45;1.35;;;;;;;;;;5070914;28;20505;-65
2021/03/05 02:51:40;;;;;;;2.05;1.35;;;;;;;;;;5071323;28;20178;-65
2021/03/05 02:54:07;;;;;;;3.20;2.08;;;;;;;;;;5071144;28;20183;-65
2021/03/05 02:56:33;;;;;;;3.40;3.25;;;;;;;;;;5071025;28;20576;-66
2021/03/05 02:59:01;;;;;;;2.85;2.65;;;;;;;;;;5070541;28;20658;-65
2021/03/05 03:01:27;;;;;;;1.63;1.58;;;;;;;;;;5072907;28;20163;-65
2021/03/05 03:03:54;;;;;;;3.17;2.17;;;;;;;;;;5075128;28;20180;-65
2021/03/05 03:06:22;;;;;;;2.95;2.83;;;;;;;;;;5075021;28;20211;-66
2021/03/05 03:08:48;;;;;;;2.05;1.85;;;;;;;;;;5074579;28;20172;-65
2021/03/05 03:11:15;;;;;;;3.38;3.17;;;;;;;;;;5056942;28;20176;-65
2021/03/05 03:13:41;;;;;;;2.60;1.70;;;;;;;;;;5075033;28;20595;-65
2021/03/05 03:16:08;;;;;;;0.93;0.93;;;;;;;;;;5074933;28;20577;-65
2021/03/05 03:18:36;;;;;;;2.75;2.55;;;;;;;;;;5074759;28;20257;-65
2021/03/05 03:21:03;;;;;;;2.78;2.58;;;;;;;;;;5074093;28;20198;-65
2021/03/05 03:23:29;;;;;;;3.13;3.03;;;;;;;;;;5074820;28;20183;-65
2021/03/05 03:25:56;;;;;;;3.70;3.47;;;;;;;;;;5074612;28;20184;-65
2021/03/05 03:28:22;;;;;;;2.42;2.28;;;;;;;;;;5056783;28;20258;-65
2021/03/05 03:30:48;;;;;;;0.80;0.80;;;;;;;;;;5073616;28;20219;-65
2021/03/05 03:33:14;;;;;;;1.20;1.20;;;;;;;;;;5074555;28;20611;-65
2021/03/05 03:35:40;;;;;;;1.67;1.52;;;;;;;;;;5056313;28;20620;-65
2021/03/05 03:38:08;;;;;;;1.77;1.23;;;;;;;;;;5074436;28;20254;-65
2021/03/05 03:40:35;;;;;;;3.65;3.42;;;;;;;;;;5073630;28;20678;-66
2021/03/05 03:43:01;;;;;;;1.30;1.30;;;;;;;;;;5074440;28;20196;-65
2021/03/05 03:45:30;;;;;;;1.73;1.17;;;;;;;;;;5074126;28;20195;-65
2021/03/05 03:47:57;;;;;;;2.13;1.63;;;;;;;;;;5074212;28;20638;-65
2021/03/05 03:50:29;;;;;;;3.17;2.33;;;;;;;;;;5073530;28;20203;-65
2021/03/05 03:52:56;;;;;;;1.58;1.48;;;;;;;;;;5074131;28;20661;-65
2021/03/05 03:55:22;;;;;;;3.67;1.60;;;;;;;;;;5074219;28;20191;-65
2021/03/05 03:57:51;;;;;;;2.50;2.40;;;;;;;;;;5056179;28;20175;-65
2021/03/05 04:00:18;;;;;;;2.25;2.15;;;;;;;;;;5055453;28;20211;-65
2021/03/05 04:02:47;;;;;;;5.95;2.45;;;;;;;;;;5073999;28;20190;-65
2021/03/05 04:05:14;;;;;;;2.97;2.85;;;;;;;;;;5073971;28;20190;-65
2021/03/05 04:07:42;;;;;;;4.30;3.60;;;;;;;;;;5074032;28;20268;-65
2021/03/05 04:10:09;;;;;;;2.25;2.08;;;;;;;;;;5073320;28;20233;-65
2021/03/05 04:12:35;;;;;;;3.10;2.33;;;;;;;;;;5073342;28;20183;-65
2021/03/05 04:15:01;;;;;;;0.93;0.93;;;;;;;;;;5073719;28;20223;-65
2021/03/05 04:17:28;;;;;;;4.45;2.97;;;;;;;;;;5073651;28;20221;-65
2021/03/05 04:19:54;;;;;;;0.95;0.95;;;;;;;;;;5073244;28;20723;-65
2021/03/05 04:22:21;;;;;;;0.93;0.93;;;;;;;;;;5073773;28;20213;-65
2021/03/05 04:24:47;;;;;;;1.45;1.35;;;;;;;;;;5055817;28;20187;-65
2021/03/05 04:27:14;;;;;;;2.67;2.53;;;;;;;;;;5073586;28;20301;-65
2021/03/05 04:29:40;;;;;;;2.33;2.22;;;;;;;;;;5072932;28;20203;-66
2021/03/05 04:32:06;;;;;;;1.52;1.52;;;;;;;;;;5073498;28;20662;-65
2021/03/05 04:37:06;;;;;;;1.52;1.45;;;;;;;;;;5106840;22;20587;-65
2021/03/05 04:39:32;;;;;;;1.97;1.87;;;;;;;;;;5092718;28;20213;-65
2021/03/05 04:41:58;;;;;;;0.60;0.60;;;;;;;;;;5093784;28;20428;-64
2021/03/05 04:44:24;;;;;;;4.03;1.90;;;;;;;;;;5093605;28;20450;-65
2021/03/05 04:46:50;;;;;;;1.40;1.40;;;;;;;;;;5093343;28;20428;-65
2021/03/05 04:49:16;;;;;;;1.55;1.45;;;;;;;;;;5092723;28;20433;-64
2021/03/05 04:51:42;;;;;;;2.58;2.40;;;;;;;;;;5093373;28;20726;-64
2021/03/05 04:54:08;;;;;;;0.98;0.98;;;;;;;;;;5093666;28;20202;-65
2021/03/05 04:56:35;;;;;;;0.85;0.85;;;;;;;;;;5093412;28;20874;-65
2021/03/05 04:59:01;;;;;;;2.78;2.67;;;;;;;;;;5092925;28;20534;-64
2021/03/05 05:01:27;;;;;;;1.45;1.35;;;;;;;;;;5093109;28;20253;-65
2021/03/05 05:03:53;;;;;;;1.80;1.70;;;;;;;;;;5093166;28;20163;-64
2021/03/05 05:06:19;;;;;;;2.15;1.40;;;;;;;;;;5093024;28;20190;-64
2021/03/05 05:08:45;;;;;;;3.85;3.45;;;;;;;;;;5092932;28;20581;-65
2021/03/05 05:11:11;;;;;;;1.58;1.42;;;;;;;;;;5092896;28;20185;-65
2021/03/05 05:13:37;;;;;;;3.42;2.20;;;;;;;;;;5093105;28;20365;-65
2021/03/05 05:16:03;;;;;;;0.75;0.75;;;;;;;;;;5092879;28;20194;-64
2021/03/05 05:18:29;;;;;;;3.70;3.50;;;;;;;;;;5092625;28;20178;-62
2021/03/05 05:20:55;;;;;;;3.38;3.13;;;;;;;;;;5091204;28;20190;-65
2021/03/05 05:23:21;;;;;;;1.38;1.38;;;;;;;;;;5091987;28;20194;-65
2021/03/05 05:25:47;;;;;;;3.00;2.80;;;;;;;;;;5091347;28;20201;-65
2021/03/05 05:28:13;;;;;;;1.77;1.63;;;;;;;;;;5091418;28;20201;-63
2021/03/05 05:30:39;;;;;;;0.73;0.73;;;;;;;;;;5092018;28;20170;-63
2021/03/05 05:33:05;;;;;;;1.70;1.70;;;;;;;;;;5092197;28;20193;-64
2021/03/05 05:35:31;;;;;;;2.05;2.00;;;;;;;;;;5092116;28;20213;-64
2021/03/05 05:37:57;;;;;;;1.45;1.38;;;;;;;;;;5092520;28;20175;-64
2021/03/05 05:40:23;;;;;;;1.10;1.10;;;;;;;;;;5091713;28;20658;-64
2021/03/05 05:42:51;;;;;;;1.83;1.73;;;;;;;;;;5092500;28;20552;-64
2021/03/05 05:45:17;;;;;;;1.77;1.35;;;;;;;;;;5089475;28;20562;-63
2021/03/05 05:47:43;;;;;;;1.33;1.23;;;;;;;;;;5080757;28;20171;-63
2021/03/05 05:50:10;;;;;;;3.22;2.90;;;;;;;;;;5091712;28;20167;-63
2021/03/05 05:52:36;;;;;;;2.63;2.53;;;;;;;;;;5079961;28;20186;-63
2021/03/05 05:55:04;;;;;;;1.77;1.75;;;;;;;;;;5075421;28;20210;-63
2021/03/05 05:57:30;;;;;;;2.00;1.90;;;;;;;;;;5091434;28;20162;-63
2021/03/05 05:59:59;;;;;;;2.00;1.90;;;;;;;;;;5088485;28;20203;-64
2021/03/05 06:02:27;;;;;;;1.35;1.35;;;;;;;;;;5080073;28;20171;-63
2021/03/05 06:04:56;;;;;;;2.00;1.63;;;;;;;;;;5086831;28;20223;-64
2021/03/05 06:07:22;;;;;;;1.13;1.13;;;;;;;;;;5076760;28;20596;-64
2021/03/05 06:09:53;;;;;;;1.55;1.45;;;;;;;;;;5080091;28;20268;-64
2021/03/05 06:12:19;;;;;;;1.30;1.20;;;;;;;;;;5091843;28;20599;-64
2021/03/05 06:14:46;;;;;;;0.40;0.40;;;;;;;;;;5083194;28;20274;-64
2021/03/05 06:17:12;;;;;;;2.28;2.17;;;;;;;;;;5074814;28;20706;-63
2021/03/05 06:19:38;;;;;;;1.20;1.13;;;;;;;;;;5087725;28;20255;-63
2021/03/05 06:22:21;;;;;;;1.60;1.58;;;;;;;;;;5089377;28;20582;-64
2021/03/05 06:24:47;;;;;;;1.77;1.67;;;;;;;;;;5083542;28;20179;-63
2021/03/05 06:27:14;;;;;;;1.55;1.42;;;;;;;;;;5071162;28;20245;-63
2021/03/05 06:29:44;;;;;;;0.93;0.93;;;;;;;;;;5071816;28;20186;-63
2021/03/05 06:32:11;;;;;;;1.92;1.83;;;;;;;;;;5091091;28;20226;-64
2021/03/05 06:34:47;;;;;;;2.47;2.35;;;;;;;;;;5078601;28;20173;-64
2021/03/05 06:37:13;;;;;;;1.17;1.13;;;;;;;;;;5070785;28;20175;-64
2021/03/05 06:39:39;;;;;;;0.65;0.65;;;;;;;;;;5064545;28;20829;-64
2021/03/05 06:42:12;;;;;;;1.55;1.20;;;;;;;;;;5091219;28;20178;-64
2021/03/05 06:44:39;;;;;;;1.90;1.30;;;;;;;;;;5088493;28;20183;-63
2021/03/05 06:47:15;;;;;;;2.47;1.80;;;;;;;;;;5091008;28;20546;-64
2021/03/05 06:49:43;;;;;;;6.63;2.22;;;;;;;;;;5085725;28;20171;-64
2021/03/05 06:52:09;;;;;;;2.88;1.80;;;;;;;;;;5080310;28;20179;-64
2021/03/05 06:54:37;;;;;;;5.50;1.33;;;;;;;;;;5078702;28;20177;-64
2021/03/05 06:57:03;;;;;;;0.75;0.75;;;;;;;;;;5073074;28;20601;-64
2021/03/05 06:59:36;;;;;;;0.73;0.73;;;;;;;;;;5070140;28;20562;-64
2021/03/05 07:02:02;;;;;;;2.00;1.83;;;;;;;;;;5085024;28;20174;-64
2021/03/05 07:04:29;;;;;;;1.15;1.15;;;;;;;;;;5076349;28;20171;-64
2021/03/05 07:07:05;;;;;;;2.67;2.53;;;;;;;;;;5073157;28;20249;-64
2021/03/05 07:09:38;;;;;;;2.00;1.40;;;;;;;;;;5068997;28;20174;-65
2021/03/05 07:12:25;;;;;;;1.98;1.95;;;;;;;;;;5070594;28;20176;-64
2021/03/05 07:15:00;;;;;;;1.30;1.27;;;;;;;;;;5070787;28;20180;-64
2021/03/05 07:17:26;;;;;;;1.25;1.25;;;;;;;;;;5070734;28;20211;-64
2021/03/05 07:19:54;;;;;;;1.90;1.80;;;;;;;;;;5070015;28;20271;-64
2021/03/05 07:22:21;;;;;;;1.13;1.13;;;;;;;;;;5071032;28;20848;-63
2021/03/05 07:24:49;;;;;;;1.15;1.15;;;;;;;;;;5070546;28;20203;-64
2021/03/05 07:27:16;;;;;;;6.68;1.23;;;;;;;;;;5070681;28;20172;-64
2021/03/05 07:29:46;;;;;;;2.05;1.88;;;;;;;;;;5069989;28;20182;-64
2021/03/05 07:32:15;;;;;;;3.53;3.22;;;;;;;;;;5082714;28;20179;-64
2021/03/05 07:35:01;;;;;;;3.63;1.65;;;;;;;;;;5090502;28;20279;-64
2021/03/05 07:37:31;;;;;;;2.17;1.63;;;;;;;;;;5089879;28;20275;-65
2021/03/05 07:40:00;;;;;;;1.63;1.63;;;;;;;;;;5088368;28;20268;-65
2021/03/05 07:42:26;;;;;;;1.60;1.50;;;;;;;;;;5090304;28;20206;-64
2021/03/05 07:44:53;;;;;;;2.35;2.15;;;;;;;;;;5090225;28;20542;-64
2021/03/05 07:47:19;;;;;;;3.65;3.47;;;;;;;;;;5072160;28;20167;-65
2021/03/05 07:49:45;;;;;;;0.70;0.70;;;;;;;;;;5092346;28;20771;-64
2021/03/05 07:52:12;;;;;;;1.85;1.67;;;;;;;;;;5093575;28;20175;-64
2021/03/05 07:54:41;;;;;;;2.40;2.20;;;;;;;;;;5094065;28;20180;-65
2021/03/05 07:57:08;;;;;;;2.25;1.63;;;;;;;;;;5093600;28;20179;-64
2021/03/05 07:59:44;;;;;;;1.40;1.27;;;;;;;;;;5093181;28;20225;-65
2021/03/05 08:02:10;;;;;;;2.15;1.42;;;;;;;;;;5092127;28;20267;-64
2021/03/05 08:05:04;;;;;;;4.70;2.38;;;;;;;;;;5093669;28;20580;-65
2021/03/05 08:07:32;;;;;;;1.77;1.67;;;;;;;;;;5093571;28;20170;-64
2021/03/05 08:09:59;;;;;;;1.83;1.73;;;;;;;;;;5092882;28;20225;-64
2021/03/05 08:15:09;;;;;;;1.70;1.60;;;;;;;;;;5093442;28;20178;-65
2021/03/05 08:17:42;;;;;;;1.17;1.17;;;;;;;;;;5093274;28;20162;-64
2021/03/05 08:20:17;;;;;;;1.73;1.23;;;;;;;;;;5092558;28;20662;-64
2021/03/05 08:23:02;;;;;;;3.53;2.58;;;;;;;;;;5093131;28;20200;-64
2021/03/05 08:25:32;;;;;;;1.00;1.00;;;;;;;;;;5092620;28;20209;-64
2021/03/05 08:27:59;;;;;;;4.22;2.33;;;;;;;;;;5093372;28;20167;-64
2021/03/05 08:30:34;;;;;;;2.85;2.17;;;;;;;;;;5092477;28;20476;-64
2021/03/05 08:33:00;;;;;;;1.95;1.85;;;;;;;;;;5074726;28;20564;-65
2021/03/05 08:35:30;;;;;;;1.50;1.40;;;;;;;;;;5091497;28;20218;-64
2021/03/05 08:37:59;;;;;;;0.60;0.60;;;;;;;;;;5093016;28;20228;-64
2021/03/05 08:40:25;;;;;;;1.15;1.05;;;;;;;;;;5092218;28;20198;-64
2021/03/05 08:42:52;;;;;;;1.50;1.40;;;;;;;;;;5092679;28;20171;-65
2021/03/05 08:45:23;;;;;;;1.58;1.15;;;;;;;;;;5092247;28;20265;-64
2021/03/05 08:47:53;;;;;;;12.02;2.72;;;;;;;;;;5091906;28;20551;-64
2021/03/05 08:50:21;;;;;;;1.15;1.15;;;;;;;;;;5092579;28;20171;-64
2021/03/05 08:52:48;;;;;;;2.30;2.15;;;;;;;;;;5093420;28;20295;-64
2021/03/05 08:55:15;;;;;;;1.58;1.40;;;;;;;;;;5075020;28;20198;-64
2021/03/05 08:57:44;;;;;;;1.85;0.95;;;;;;;;;;5092408;28;20188;-64
2021/03/05 09:00:12;;;;;;;1.42;1.33;;;;;;;;;;5092378;28;20209;-64
2021/03/05 09:02:39;;;;;;;0.80;0.80;;;;;;;;;;5093403;28;20163;-64
2021/03/05 09:05:05;;;;;;;1.60;0.82;;;;;;;;;;5092779;28;20236;-64
2021/03/05 09:07:31;;;;;;;1.33;0.88;;;;;;;;;;5092245;28;20171;-64
2021/03/05 09:09:57;;;;;;;0.85;0.85;;;;;;;;;;5090744;28;20528;-64
2021/03/05 09:12:24;;;;;;;5.35;2.53;;;;;;;;;;5092535;28;20180;-65
2021/03/05 09:15:04;;;;;;;1.70;1.60;;;;;;;;;;5092186;28;20162;-64
2021/03/05 09:17:30;;;;;;;1.02;1.02;;;;;;;;;;5092559;28;20260;-64
2021/03/05 09:19:56;;;;;;;3.53;1.98;;;;;;;;;;5090410;28;20204;-64
2021/03/05 09:22:23;;;;;;;1.88;1.77;;;;;;;;;;5092911;28;20170;-64
2021/03/05 09:24:59;;;;;;;1.55;1.48;;;;;;;;;;5092156;28;20173;-64
2021/03/05 09:27:31;;;;;;;1.50;1.40;;;;;;;;;;5092019;28;20171;-64
2021/03/05 09:29:57;;;;;;;1.15;1.15;;;;;;;;;;5091082;28;20221;-64
2021/03/05 09:32:24;;;;;;;4.72;1.63;;;;;;;;;;5091137;28;20170;-64
2021/03/05 09:34:54;;;;;;;0.70;0.70;;;;;;;;;;5091812;28;20178;-64
2021/03/05 09:37:21;;;;;;;0.90;0.85;;;;;;;;;;5092431;28;20175;-64
2021/03/05 09:39:48;;;;;;;2.35;1.58;;;;;;;;;;5091232;28;20198;-64
2021/03/05 09:42:14;;;;;;;1.77;1.33;;;;;;;;;;5090274;28;20179;-64
2021/03/05 09:44:46;;;;;;;2.33;2.08;;;;;;;;;;5091996;28;20533;-64
2021/03/05 09:47:13;;;;;;;4.03;2.15;;;;;;;;;;5091453;28;20171;-64
2021/03/05 09:49:39;;;;;;;0.80;0.80;;;;;;;;;;5091044;28;20690;-64
2021/03/05 09:52:06;;;;;;;1.25;1.25;;;;;;;;;;5073356;28;20178;-64
2021/03/05 09:54:40;;;;;;;1.33;1.23;;;;;;;;;;5090656;28;20179;-64
2021/03/05 09:57:06;;;;;;;1.58;1.48;;;;;;;;;;5091524;28;20195;-64
2021/03/05 09:59:40;;;;;;;1.80;1.75;;;;;;;;;;5090863;28;20200;-64
2021/03/05 10:02:06;;;;;;;1.20;1.10;;;;;;;;;;5091640;28;20194;-64
2021/03/05 10:04:40;;;;;;;0.50;0.50;;;;;;;;;;5090068;28;20174;-64
2021/03/05 10:07:06;;;;;;;2.28;2.10;;;;;;;;;;5091373;28;20665;-64
2021/03/05 10:09:32;;;;;;;1.92;1.48;;;;;;;;;;5090614;28;20183;-64
2021/03/05 10:11:58;;;;;;;0.75;0.75;;;;;;;;;;5090690;28;20176;-64
2021/03/05 10:14:29;;;;;;;1.43;1.33;;;;;;;;;;5091106;28;20186;-65
2021/03/05 10:17:05;;;;;;;0.73;0.73;;;;;;;;;;5090003;28;20441;-64
2021/03/05 10:19:31;;;;;;;3.88;2.58;;;;;;;;;;5090173;28;20225;-64
2021/03/05 10:21:59;;;;;;;3.05;1.67;;;;;;;;;;5090958;28;20167;-64
2021/03/05 10:24:29;;;;;;;2.13;1.55;;;;;;;;;;5091134;28;20238;-64
2021/03/05 10:27:11;;;;;;;2.08;1.75;;;;;;;;;;5089516;28;20596;-64
2021/03/05 10:29:41;;;;;;;0.90;0.90;;;;;;;;;;5090401;28;20176;-64
2021/03/05 10:32:28;;;;;;;0.88;0.82;;;;;;;;;;5090948;28;20171;-64
2021/03/05 10:34:58;;;;;;;2.83;2.60;;;;;;;;;;5090875;28;20179;-64
2021/03/05 10:37:24;;;;;;;0.40;0.40;;;;;;;;;;5091068;28;20654;-64
2021/03/05 10:39:51;;;;;;;1.85;1.15;;;;;;;;;;5089750;28;20230;-64
2021/03/05 10:42:18;;;;;;;1.10;0.80;;;;;;;;;;5091048;28;20195;-64
2021/03/05 10:44:45;;;;;;;1.77;1.27;;;;;;;;;;5090617;28;20255;-64
2021/03/05 10:47:13;;;;;;;1.35;1.25;;;;;;;;;;5091020;28;20542;-64
2021/03/05 10:49:39;;;;;;;0.68;0.68;;;;;;;;;;5088830;28;20624;-64
2021/03/05 10:52:06;;;;;;;2.83;2.63;;;;;;;;;;5090450;28;20201;-64
2021/03/05 10:54:32;;;;;;;2.38;2.28;;;;;;;;;;5090864;28;20188;-64
2021/03/05 10:56:58;;;;;;;2.42;1.13;;;;;;;;;;5090539;28;20235;-63
2021/03/05 10:59:24;;;;;;;2.05;1.95;;;;;;;;;;5089341;28;20181;-63
2021/03/05 11:01:54;;;;;;;1.83;1.60;;;;;;;;;;5090080;28;20657;-63
2021/03/05 11:04:22;;;;;;;1.85;1.52;;;;;;;;;;5090732;28;20249;-63
2021/03/05 11:06:49;;;;;;;0.95;0.95;;;;;;;;;;5090569;28;20202;-63
2021/03/05 11:09:15;;;;;;;0.60;0.60;;;;;;;;;;5089988;28;20162;-64
2021/03/05 11:11:41;;;;;;;2.03;1.60;;;;;;;;;;5089185;28;20163;-64
2021/03/05 11:14:07;;;;;;;1.10;1.00;;;;;;;;;;5090511;28;20194;-64
2021/03/05 11:16:34;;;;;;;0.93;0.93;;;;;;;;;;5090496;28;20679;-64
2021/03/05 11:19:00;;;;;;;1.48;1.48;;;;;;;;;;5089991;28;20265;-63
2021/03/05 11:21:26;;;;;;;3.30;3.13;;;;;;;;;;5090315;28;20249;-64
2021/03/05 11:23:54;;;;;;;2.25;1.70;;;;;;;;;;5091880;28;20171;-64
2021/03/05 11:26:20;;;;;;;1.20;1.15;;;;;;;;;;5094275;28;20567;-63
2021/03/05 11:28:46;;;;;;;1.23;1.02;;;;;;;;;;5093850;28;20201;-64
2021/03/05 11:31:12;;;;;;;3.23;2.43;;;;;;;;;;5094226;28;20205;-65
2021/03/05 11:33:39;;;;;;;3.63;2.58;;;;;;;;;;5092973;28;20398;-65
2021/03/05 11:36:05;;;;;;;1.35;1.35;;;;;;;;;;5094152;28;20209;-65
2021/03/05 11:38:32;;;;;;;1.92;1.25;;;;;;;;;;5094153;28;20535;-65
2021/03/05 11:40:58;;;;;;;1.58;1.20;;;;;;;;;;5093473;28;20362;-65
2021/03/05 11:43:24;;;;;;;1.60;1.50;;;;;;;;;;5094167;28;20208;-65
2021/03/05 11:45:50;;;;;;;0.82;0.82;;;;;;;;;;5074336;28;20435;-64
2021/03/05 11:48:16;;;;;;;2.67;2.47;;;;;;;;;;5094280;28;20163;-63
2021/03/05 11:50:42;;;;;;;3.15;2.83;;;;;;;;;;5093129;28;20449;-63
2021/03/05 11:53:08;;;;;;;2.85;2.60;;;;;;;;;;5094005;28;20195;-63
2021/03/05 11:55:34;;;;;;;5.15;1.77;;;;;;;;;;5092530;28;20211;-63
2021/03/05 11:58:01;;;;;;;2.45;1.10;;;;;;;;;;5093402;28;20174;-63
2021/03/05 12:00:28;;;;;;;2.60;2.40;;;;;;;;;;5093106;28;20219;-63
2021/03/05 12:02:54;;;;;;;0.80;0.70;;;;;;;;;;5093656;28;20178;-63
2021/03/05 12:05:20;;;;;;;0.88;0.88;;;;;;;;;;5093657;28;20220;-63
2021/03/05 12:07:46;;;;;;;2.03;1.92;;;;;;;;;;5092122;28;20166;-63
2021/03/05 12:10:13;;;;;;;1.70;1.25;;;;;;;;;;5092919;28;20215;-63
2021/03/05 12:12:39;;;;;;;2.97;2.03;;;;;;;;;;5093494;28;20173;-63
2021/03/05 12:15:05;;;;;;;1.75;1.10;;;;;;;;;;5093559;28;20615;-63
2021/03/05 12:17:31;;;;;;;2.20;1.73;;;;;;;;;;5092796;28;20171;-63
2021/03/05 12:19:57;;;;;;;1.00;0.90;;;;;;;;;;5091736;28;20198;-63
2021/03/05 12:22:23;;;;;;;1.73;1.63;;;;;;;;;;5093415;28;20404;-63
2021/03/05 12:24:49;;;;;;;2.67;2.58;;;;;;;;;;5093057;28;20183;-63
2021/03/05 12:27:15;;;;;;;1.13;1.13;;;;;;;;;;5093014;28;20176;-63
2021/03/05 12:29:41;;;;;;;3.90;1.85;;;;;;;;;;5091185;28;20414;-64
2021/03/05 12:32:07;;;;;;;1.63;1.52;;;;;;;;;;5093434;28;20647;-64
2021/03/05 12:34:33;;;;;;;1.17;1.17;;;;;;;;;;5092470;28;20186;-64
2021/03/05 12:37:01;;;;;;;0.83;0.83;;;;;;;;;;5092682;28;20227;-64
2021/03/05 12:39:27;;;;;;;7.13;2.78;;;;;;;;;;5092228;28;20415;-64
2021/03/05 12:41:53;;;;;;;3.92;2.70;;;;;;;;;;5091786;28;20962;-64
2021/03/05 12:44:19;;;;;;;2.90;2.07;;;;;;;;;;5074835;28;20177;-63
2021/03/05 12:46:45;;;;;;;1.90;1.70;;;;;;;;;;5092699;28;20828;-64
2021/03/05 12:49:11;;;;;;;1.35;1.35;;;;;;;;;;5092158;28;20599;-63
2021/03/05 12:51:37;;;;;;;1.35;1.23;;;;;;;;;;5091560;28;20313;-64
2021/03/05 12:54:04;;;;;;;0.80;0.77;;;;;;;;;;5092822;28;20252;-64
2021/03/05 12:56:30;;;;;;;1.83;1.83;;;;;;;;;;5092442;28;20199;-64
2021/03/05 12:58:56;;;;;;;1.90;1.80;;;;;;;;;;5091798;28;20176;-63
2021/03/05 13:01:23;;;;;;;1.30;1.30;;;;;;;;;;5092398;28;20203;-64
2021/03/05 13:03:49;;;;;;;1.17;1.17;;;;;;;;;;5091168;28;20401;-63
2021/03/05 13:06:15;;;;;;;2.28;2.15;;;;;;;;;;5092437;28;20206;-64
2021/03/05 13:08:41;;;;;;;1.20;1.20;;;;;;;;;;5092377;28;20183;-64
2021/03/05 13:11:07;;;;;;;1.95;1.75;;;;;;;;;;5091842;28;20184;-63
2021/03/05 13:13:34;;;;;;;1.17;1.17;;;;;;;;;;5091727;28;20721;-64
2021/03/05 13:16:00;;;;;;;1.95;1.40;;;;;;;;;;5091845;28;20620;-64
2021/03/05 13:18:26;;;;;;;4.85;1.88;;;;;;;;;;5092171;28;20207;-64
2021/03/05 13:20:52;;;;;;;3.22;1.92;;;;;;;;;;5091511;28;20200;-64
2021/03/05 13:23:18;;;;;;;5.50;2.15;;;;;;;;;;5092347;28;20205;-63
2021/03/05 13:25:45;;;;;;;1.43;1.43;;;;;;;;;;5090934;28;20217;-64
2021/03/05 13:28:11;;;;;;;1.92;1.77;;;;;;;;;;5092128;28;20403;-64
2021/03/05 13:30:38;;;;;;;3.72;2.05;;;;;;;;;;5091249;28;20201;-64
2021/03/05 13:33:04;;;;;;;1.08;1.08;;;;;;;;;;5091380;28;20189;-64
2021/03/05 13:35:31;;;;;;;1.05;1.05;;;;;;;;;;5091324;28;20302;-64
2021/03/05 13:37:57;;;;;;;2.38;1.83;;;;;;;;;;5090759;28;20264;-64
2021/03/05 13:40:24;;;;;;;5.00;1.13;;;;;;;;;;5091261;28;20229;-64
2021/03/05 13:42:50;;;;;;;1.67;1.58;;;;;;;;;;5091800;28;20204;-64
2021/03/05 13:45:16;;;;;;;1.08;1.08;;;;;;;;;;5090932;28;20278;-64
2021/03/05 13:47:42;;;;;;;2.28;2.15;;;;;;;;;;5071960;28;20673;-64
2021/03/05 13:50:09;;;;;;;2.08;1.95;;;;;;;;;;5091177;28;20176;-64
2021/03/05 13:52:35;;;;;;;1.35;1.25;;;;;;;;;;5091782;28;20204;-63
2021/03/05 13:55:01;;;;;;;2.58;2.33;;;;;;;;;;5091462;28;20858;-63
2021/03/05 13:57:27;;;;;;;1.10;1.10;;;;;;;;;;5091511;28;20222;-64
2021/03/05 13:59:53;;;;;;;1.88;1.42;;;;;;;;;;5089215;28;20599;-64
2021/03/05 14:02:19;;;;;;;0.88;0.88;;;;;;;;;;5091535;28;20175;-64
2021/03/05 14:04:45;;;;;;;1.95;1.80;;;;;;;;;;5090987;28;20219;-64
2021/03/05 14:07:11;;;;;;;2.15;2.05;;;;;;;;;;5091493;28;20156;-64
2021/03/05 14:09:38;;;;;;;3.60;2.25;;;;;;;;;;5089593;28;20697;-64
2021/03/05 14:12:04;;;;;;;4.00;2.83;;;;;;;;;;5091113;28;20173;-64
2021/03/05 14:14:30;;;;;;;4.10;1.55;;;;;;;;;;5091312;28;20252;-64
2021/03/05 14:16:56;;;;;;;3.47;1.63;;;;;;;;;;5073053;28;20648;-64
2021/03/05 14:19:22;;;;;;;0.80;0.80;;;;;;;;;;5090389;28;20172;-64
2021/03/05 14:21:48;;;;;;;2.15;1.92;;;;;;;;;;5089903;28;20167;-64
2021/03/05 14:24:14;;;;;;;1.40;1.38;;;;;;;;;;5091343;28;20168;-64
2021/03/05 14:26:40;;;;;;;1.67;1.42;;;;;;;;;;5090917;28;20193;-64
2021/03/05 14:29:06;;;;;;;1.52;1.45;;;;;;;;;;5090519;28;20217;-64
2021/03/05 14:31:33;;;;;;;0.90;0.90;;;;;;;;;;5090314;28;20219;-64
2021/03/05 14:33:59;;;;;;;0.60;0.60;;;;;;;;;;5090193;28;20188;-64
2021/03/05 14:36:25;;;;;;;2.30;2.20;;;;;;;;;;5090619;28;20605;-64
2021/03/05 14:38:51;;;;;;;1.60;1.60;;;;;;;;;;5090296;28;20590;-63
2021/03/05 14:41:17;;;;;;;1.40;1.40;;;;;;;;;;5090917;28;20283;-64
2021/03/05 14:43:43;;;;;;;0.87;0.87;;;;;;;;;;5089554;28;20404;-64
2021/03/05 14:46:09;;;;;;;1.05;1.05;;;;;;;;;;5091000;28;20983;-64
2021/03/05 14:48:36;;;;;;;2.63;2.43;;;;;;;;;;5090750;28;20220;-64
2021/03/05 14:51:02;;;;;;;0.75;0.75;;;;;;;;;;5090170;28;20496;-64